Time;durP1;ratioP1;P1;durP2;ratioP2;P2;SDS_P1;SDS_P2;PMS_P1;PMS_P2;Temp;Humidity;BMP_temperature;BMP_pressure;BME280_temperature;BME280_humidity;BME280_pressure;Samples;Min_cycle;Max_cycle;Signal;HPM_P1;HPM_P2
2021/11/02 00:01:59;;;;;;;12.50;1.95;;;;;;;;;;5010217;28;20377;-70
2021/11/02 00:04:24;;;;;;;4.32;1.60;;;;;;;;;;5010624;28;20018;-69
2021/11/02 00:06:50;;;;;;;6.47;1.25;;;;;;;;;;5010635;28;20022;-69
2021/11/02 00:09:16;;;;;;;1.65;1.13;;;;;;;;;;5010398;28;20037;-68
2021/11/02 00:11:42;;;;;;;7.72;1.40;;;;;;;;;;4992086;28;20453;-68
2021/11/02 00:14:09;;;;;;;2.83;1.52;;;;;;;;;;5006482;28;20026;-69
2021/11/02 00:16:35;;;;;;;12.70;1.42;;;;;;;;;;5004558;28;20022;-69
2021/11/02 00:19:05;;;;;;;6.15;1.48;;;;;;;;;;5003977;28;20014;-69
2021/11/02 00:21:34;;;;;;;13.77;1.77;;;;;;;;;;5001904;28;20045;-71
2021/11/02 00:24:10;;;;;;;7.72;1.92;;;;;;;;;;5000660;28;20021;-69
2021/11/02 00:26:35;;;;;;;12.70;1.60;;;;;;;;;;5004130;28;20068;-69
2021/11/02 00:29:00;;;;;;;6.43;1.63;;;;;;;;;;5003022;28;20034;-73
2021/11/02 00:31:26;;;;;;;4.10;1.40;;;;;;;;;;5003295;28;20025;-69
2021/11/02 00:33:51;;;;;;;6.72;1.00;;;;;;;;;;5005915;28;20704;-72
2021/11/02 00:36:16;;;;;;;8.00;1.97;;;;;;;;;;5005222;28;20566;-72
2021/11/02 00:38:41;;;;;;;6.32;2.08;;;;;;;;;;5002799;28;20276;-71
2021/11/02 00:41:06;;;;;;;7.18;1.70;;;;;;;;;;5002364;28;20080;-69
2021/11/02 00:43:32;;;;;;;12.25;1.45;;;;;;;;;;5004064;28;21261;-70
2021/11/02 00:45:57;;;;;;;14.10;1.50;;;;;;;;;;5003259;28;20030;-71
2021/11/02 00:48:27;;;;;;;6.00;1.42;;;;;;;;;;5002006;28;20033;-71
2021/11/02 00:50:52;;;;;;;7.22;1.65;;;;;;;;;;5000997;28;20022;-69
2021/11/02 00:53:18;;;;;;;19.88;2.22;;;;;;;;;;5001641;28;20045;-70
2021/11/02 00:55:43;;;;;;;15.65;2.38;;;;;;;;;;5002248;28;20041;-73
2021/11/02 00:58:08;;;;;;;4.55;1.30;;;;;;;;;;5004467;28;20026;-69
2021/11/02 01:00:34;;;;;;;5.80;0.88;;;;;;;;;;5016546;23;20035;-66
2021/11/02 01:03:00;;;;;;;8.30;1.70;;;;;;;;;;5004289;28;20041;-66
2021/11/02 01:05:25;;;;;;;6.68;1.50;;;;;;;;;;5001130;28;20042;-65
2021/11/02 01:07:50;;;;;;;9.25;1.80;;;;;;;;;;5003716;28;20052;-65
2021/11/02 01:10:16;;;;;;;2.92;1.23;;;;;;;;;;5004723;28;20029;-65
2021/11/02 01:12:45;;;;;;;11.27;1.60;;;;;;;;;;5007618;28;20068;-66
2021/11/02 01:15:11;;;;;;;7.82;1.60;;;;;;;;;;5007062;28;20556;-66
2021/11/02 01:17:36;;;;;;;8.70;1.80;;;;;;;;;;5007723;28;20550;-66
2021/11/02 01:20:06;;;;;;;6.30;1.30;;;;;;;;;;5009005;28;20018;-66
2021/11/02 01:22:31;;;;;;;6.32;1.73;;;;;;;;;;5009054;28;20026;-65
2021/11/02 01:24:56;;;;;;;9.25;1.20;;;;;;;;;;5007278;28;20929;-66
2021/11/02 01:27:21;;;;;;;12.17;1.40;;;;;;;;;;5007812;28;20028;-65
2021/11/02 01:29:46;;;;;;;8.90;1.63;;;;;;;;;;5007364;28;20269;-67
2021/11/02 01:32:12;;;;;;;8.60;1.70;;;;;;;;;;5005406;28;20029;-65
2021/11/02 01:34:37;;;;;;;5.43;1.50;;;;;;;;;;5008237;28;20105;-66
2021/11/02 01:37:04;;;;;;;10.63;1.98;;;;;;;;;;5006038;28;20273;-65
2021/11/02 01:39:29;;;;;;;12.05;2.03;;;;;;;;;;5006008;28;20022;-66
2021/11/02 01:41:54;;;;;;;8.40;1.65;;;;;;;;;;5010582;28;20049;-65
2021/11/02 01:44:19;;;;;;;9.75;1.67;;;;;;;;;;5013430;28;20017;-67
2021/11/02 01:46:45;;;;;;;8.43;1.65;;;;;;;;;;5008648;28;20030;-65
2021/11/02 01:49:10;;;;;;;10.00;1.40;;;;;;;;;;5001542;28;20084;-66
2021/11/02 01:51:36;;;;;;;7.93;1.30;;;;;;;;;;5006657;28;20386;-66
2021/11/02 01:54:03;;;;;;;3.80;1.40;;;;;;;;;;5007691;28;20030;-66
2021/11/02 01:56:28;;;;;;;6.43;1.30;;;;;;;;;;5005234;28;20104;-65
2021/11/02 01:58:54;;;;;;;10.05;1.60;;;;;;;;;;5007003;28;20497;-66
2021/11/02 02:01:29;;;;;;;8.57;1.58;;;;;;;;;;5010251;28;20026;-66
2021/11/02 02:04:15;;;;;;;6.40;1.75;;;;;;;;;;5012528;28;20027;-66
2021/11/02 02:06:49;;;;;;;5.80;1.52;;;;;;;;;;5006349;28;20450;-66
2021/11/02 02:09:22;;;;;;;6.38;1.48;;;;;;;;;;5009251;28;20026;-65
2021/11/02 02:11:50;;;;;;;5.30;1.42;;;;;;;;;;5002051;28;20026;-66
2021/11/02 02:14:19;;;;;;;6.00;1.25;;;;;;;;;;5006957;28;20025;-67
2021/11/02 02:16:46;;;;;;;7.47;1.50;;;;;;;;;;5005805;28;20021;-67
2021/11/02 02:19:17;;;;;;;7.97;1.33;;;;;;;;;;5007454;28;20014;-66
2021/11/02 02:21:47;;;;;;;8.85;1.45;;;;;;;;;;5006498;28;20121;-66
2021/11/02 02:24:31;;;;;;;4.93;1.50;;;;;;;;;;5004978;28;20029;-66
2021/11/02 02:27:14;;;;;;;5.53;1.42;;;;;;;;;;5006845;28;20358;-65
2021/11/02 02:29:42;;;;;;;3.55;1.20;;;;;;;;;;5003266;28;20018;-66
2021/11/02 02:32:10;;;;;;;5.60;0.90;;;;;;;;;;5005266;28;20614;-66
2021/11/02 02:34:35;;;;;;;4.07;1.20;;;;;;;;;;5005340;28;20021;-66
2021/11/02 02:37:01;;;;;;;4.47;1.35;;;;;;;;;;5005358;28;20028;-66
2021/11/02 02:39:26;;;;;;;3.25;1.42;;;;;;;;;;5004936;28;20109;-67
2021/11/02 02:41:52;;;;;;;2.00;1.10;;;;;;;;;;5005748;28;20014;-65
2021/11/02 02:44:18;;;;;;;6.75;1.05;;;;;;;;;;5004977;28;20471;-65
2021/11/02 02:46:43;;;;;;;3.55;1.17;;;;;;;;;;5004853;28;20060;-66
2021/11/02 02:49:09;;;;;;;3.92;1.17;;;;;;;;;;5004718;28;20022;-67
2021/11/02 02:51:35;;;;;;;4.50;1.20;;;;;;;;;;5004352;28;20030;-66
2021/11/02 02:54:00;;;;;;;13.35;1.63;;;;;;;;;;5005167;28;20366;-65
2021/11/02 02:56:28;;;;;;;11.82;1.73;;;;;;;;;;5005157;28;20030;-67
2021/11/02 02:58:55;;;;;;;2.50;1.17;;;;;;;;;;5005176;28;20025;-66
2021/11/02 03:01:21;;;;;;;2.38;1.13;;;;;;;;;;5003046;28;20018;-65
2021/11/02 03:03:48;;;;;;;4.70;0.90;;;;;;;;;;5005531;28;20780;-67
2021/11/02 03:06:15;;;;;;;5.13;1.17;;;;;;;;;;5007442;28;20033;-66
2021/11/02 03:08:41;;;;;;;2.85;0.85;;;;;;;;;;5006887;28;20422;-66
2021/11/02 03:11:07;;;;;;;5.75;1.33;;;;;;;;;;5011598;28;20026;-67
2021/11/02 03:13:34;;;;;;;3.72;0.95;;;;;;;;;;5011675;28;20040;-66
2021/11/02 03:16:04;;;;;;;4.00;1.25;;;;;;;;;;5011941;28;20561;-65
2021/11/02 03:48:52;;;;;;;8.98;1.52;;;;;;;;;;5005659;28;20110;-65
2021/11/02 03:51:41;;;;;;;8.32;1.52;;;;;;;;;;5004985;28;20036;-65
2021/11/02 03:57:07;;;;;;;4.70;1.27;;;;;;;;;;5005721;28;20521;-66
2021/11/02 04:27:30;;;;;;;7.18;1.80;;;;;;;;;;5002862;28;20487;-66
2021/11/02 04:30:34;;;;;;;5.63;1.00;;;;;;;;;;5000294;28;20042;-65
2021/11/02 05:08:17;;;;;;;6.35;1.30;;;;;;;;;;5003330;28;20029;-66
2021/11/02 05:52:26;;;;;;;4.95;1.60;;;;;;;;;;5003986;28;20050;-65
2021/11/02 05:54:54;;;;;;;4.18;1.27;;;;;;;;;;5003524;28;20465;-66
2021/11/02 06:00:02;;;;;;;4.30;1.42;;;;;;;;;;5007924;28;20029;-65
2021/11/02 06:02:46;;;;;;;5.15;1.30;;;;;;;;;;5006678;28;20383;-66
2021/11/02 06:05:29;;;;;;;3.10;0.45;;;;;;;;;;5006029;28;20121;-66
2021/11/02 06:08:30;;;;;;;2.67;1.90;;;;;;;;;;5006512;28;20025;-66
2021/11/02 06:30:44;;;;;;;1.58;1.02;;;;;;;;;;5003860;28;20770;-65
2021/11/02 06:33:19;;;;;;;3.05;1.13;;;;;;;;;;5006693;28;20045;-66
2021/11/02 06:49:26;;;;;;;6.95;1.27;;;;;;;;;;5003046;28;20095;-67
2021/11/02 07:18:37;;;;;;;4.95;0.75;;;;;;;;;;5023097;28;20022;-68
2021/11/02 07:21:11;;;;;;;7.18;0.88;;;;;;;;;;5017005;28;20124;-69
2021/11/02 07:23:49;;;;;;;1.45;0.52;;;;;;;;;;5024785;28;20438;-68
2021/11/02 07:26:26;;;;;;;4.05;0.82;;;;;;;;;;5022706;28;21231;-68
2021/11/02 08:49:01;;;;;;;1.85;0.70;;;;;;;;;;5029731;28;20482;-68
2021/11/02 08:51:28;;;;;;;5.25;0.80;;;;;;;;;;5029934;28;20025;-68
2021/11/02 08:53:54;;;;;;;1.17;0.38;;;;;;;;;;5021600;28;20025;-68
2021/11/02 08:56:19;;;;;;;4.68;1.05;;;;;;;;;;5029764;28;20393;-68
2021/11/02 08:58:46;;;;;;;8.77;1.00;;;;;;;;;;5029936;28;20032;-68
2021/11/02 09:01:11;;;;;;;2.95;0.50;;;;;;;;;;5029775;28;20255;-68
2021/11/02 09:03:37;;;;;;;2.03;0.70;;;;;;;;;;5028435;28;20465;-68
2021/11/02 09:06:05;;;;;;;6.30;0.88;;;;;;;;;;5028911;28;20061;-68
2021/11/02 09:08:35;;;;;;;1.65;0.70;;;;;;;;;;5028755;28;20028;-69
2021/11/02 09:11:01;;;;;;;2.58;1.02;;;;;;;;;;5029653;28;20088;-68
2021/11/02 09:13:27;;;;;;;8.68;0.47;;;;;;;;;;5029135;28;20119;-69
2021/11/02 09:15:57;;;;;;;4.28;0.98;;;;;;;;;;5029721;28;20236;-68
2021/11/02 09:18:23;;;;;;;3.60;1.20;;;;;;;;;;5029334;28;20018;-68
2021/11/02 09:20:49;;;;;;;1.92;0.70;;;;;;;;;;5029364;28;20020;-68
2021/11/02 09:23:14;;;;;;;0.30;0.25;;;;;;;;;;5029342;28;20393;-69
2021/11/02 09:25:39;;;;;;;2.25;0.82;;;;;;;;;;5029301;28;20034;-68
2021/11/02 09:28:04;;;;;;;3.40;0.45;;;;;;;;;;5029511;28;20092;-68
2021/11/02 09:30:30;;;;;;;2.97;0.60;;;;;;;;;;5028763;28;20108;-68
2021/11/02 09:32:55;;;;;;;3.80;1.00;;;;;;;;;;5032090;28;20064;-68
2021/11/02 09:35:22;;;;;;;0.65;0.45;;;;;;;;;;5033046;28;20021;-68
2021/11/02 09:38:09;;;;;;;5.53;0.75;;;;;;;;;;5032211;28;20084;-68
2021/11/02 09:40:53;;;;;;;10.20;1.20;;;;;;;;;;5032839;28;20029;-68
2021/11/02 09:43:30;;;;;;;10.07;1.40;;;;;;;;;;5032873;28;20386;-69
2021/11/02 09:46:15;;;;;;;3.55;1.20;;;;;;;;;;5033177;28;20116;-68
2021/11/02 09:48:58;;;;;;;1.67;1.00;;;;;;;;;;5033081;28;20029;-68
2021/11/02 09:51:26;;;;;;;2.30;0.85;;;;;;;;;;5032657;28;20033;-68
2021/11/02 09:54:01;;;;;;;4.05;1.20;;;;;;;;;;5032750;28;20033;-69
2021/11/02 09:56:33;;;;;;;1.90;0.88;;;;;;;;;;5032079;28;20017;-68
2021/11/02 09:59:05;;;;;;;4.80;1.58;;;;;;;;;;5032562;28;20014;-68
2021/11/02 10:01:42;;;;;;;3.40;0.70;;;;;;;;;;5032749;28;20013;-68
2021/11/02 10:04:23;;;;;;;3.95;0.88;;;;;;;;;;5032115;28;20115;-68
2021/11/02 10:06:54;;;;;;;1.98;0.80;;;;;;;;;;5033022;28;20086;-69
2021/11/02 10:09:19;;;;;;;2.13;0.80;;;;;;;;;;5032287;28;20108;-68
2021/11/02 10:11:45;;;;;;;8.60;1.48;;;;;;;;;;5032396;28;20508;-68
2021/11/02 10:14:29;;;;;;;6.22;1.23;;;;;;;;;;5031635;28;20279;-68
2021/11/02 10:16:59;;;;;;;2.42;0.93;;;;;;;;;;5032523;28;20029;-68
2021/11/02 10:19:38;;;;;;;1.02;0.45;;;;;;;;;;5032751;28;20017;-68
2021/11/02 10:22:06;;;;;;;4.05;1.02;;;;;;;;;;5032390;28;20044;-68
2021/11/02 10:24:44;;;;;;;9.73;3.05;;;;;;;;;;5032889;28;20037;-68
2021/11/02 10:27:35;;;;;;;3.85;0.45;;;;;;;;;;5031071;28;20074;-68
2021/11/02 10:30:15;;;;;;;3.25;0.95;;;;;;;;;;5006338;28;20094;-68
2021/11/02 10:32:43;;;;;;;6.82;1.30;;;;;;;;;;5031337;28;21746;-68
2021/11/02 10:35:26;;;;;;;1.48;0.73;;;;;;;;;;5032395;28;20022;-69
2021/11/02 10:38:02;;;;;;;7.60;0.90;;;;;;;;;;5031622;28;20086;-69
2021/11/02 10:40:36;;;;;;;4.80;1.42;;;;;;;;;;5029933;28;20018;-68
2021/11/02 10:43:16;;;;;;;6.18;0.60;;;;;;;;;;5030125;28;20021;-69
2021/11/02 10:45:53;;;;;;;9.67;1.67;;;;;;;;;;5032024;28;20020;-68
2021/11/02 10:48:19;;;;;;;0.90;0.75;;;;;;;;;;5031445;28;20683;-71
2021/11/02 10:50:47;;;;;;;1.85;1.08;;;;;;;;;;5031573;28;20021;-68
2021/11/02 10:53:17;;;;;;;12.15;1.23;;;;;;;;;;5030084;28;20091;-69
2021/11/02 10:55:49;;;;;;;5.47;1.45;;;;;;;;;;5031651;28;20009;-68
2021/11/02 10:58:23;;;;;;;9.80;1.90;;;;;;;;;;5031584;28;20022;-68
2021/11/02 11:00:50;;;;;;;6.00;1.85;;;;;;;;;;5031016;28;20096;-69
2021/11/02 11:03:16;;;;;;;3.60;1.05;;;;;;;;;;5030174;28;20025;-69
2021/11/02 11:05:46;;;;;;;5.03;2.00;;;;;;;;;;5031446;28;20033;-68
2021/11/02 11:08:13;;;;;;;3.25;0.98;;;;;;;;;;5031990;28;20100;-68
2021/11/02 11:10:38;;;;;;;4.80;1.67;;;;;;;;;;5031496;28;20029;-68
2021/11/02 11:13:08;;;;;;;5.32;1.35;;;;;;;;;;5031388;28;20036;-70
2021/11/02 11:15:34;;;;;;;11.77;1.70;;;;;;;;;;5032254;28;20030;-68
2021/11/02 11:18:04;;;;;;;6.05;1.33;;;;;;;;;;5031588;28;20032;-68
2021/11/02 11:20:31;;;;;;;3.33;1.23;;;;;;;;;;5030582;28;20052;-68
2021/11/02 11:22:57;;;;;;;1.60;0.95;;;;;;;;;;5031161;28;20072;-69
2021/11/02 11:25:43;;;;;;;2.17;0.98;;;;;;;;;;5030811;28;20108;-69
2021/11/02 11:28:12;;;;;;;2.40;1.23;;;;;;;;;;5025616;28;20529;-69
2021/11/02 11:30:39;;;;;;;4.13;1.30;;;;;;;;;;5030897;28;20025;-68
2021/11/02 11:33:08;;;;;;;4.97;1.20;;;;;;;;;;5030725;28;20394;-68
2021/11/02 11:35:35;;;;;;;4.83;0.83;;;;;;;;;;5030625;28;20021;-68
2021/11/02 11:38:02;;;;;;;0.73;0.50;;;;;;;;;;5029879;28;20018;-69
2021/11/02 11:40:28;;;;;;;2.90;1.15;;;;;;;;;;5030506;28;20021;-69
2021/11/02 11:42:56;;;;;;;1.50;0.85;;;;;;;;;;5029780;28;20102;-69
2021/11/02 11:45:26;;;;;;;6.78;2.40;;;;;;;;;;5030375;28;20127;-70
2021/11/02 11:48:05;;;;;;;2.90;1.17;;;;;;;;;;5030275;28;20025;-68
2021/11/02 11:50:31;;;;;;;4.25;1.05;;;;;;;;;;5027864;28;20025;-69
2021/11/02 11:53:02;;;;;;;1.63;0.70;;;;;;;;;;5030720;28;20051;-69
2021/11/02 11:55:31;;;;;;;1.98;0.93;;;;;;;;;;5029373;28;20409;-70
2021/11/02 11:58:04;;;;;;;3.13;1.30;;;;;;;;;;5030230;28;20021;-68
2021/11/02 12:00:30;;;;;;;3.60;2.92;;;;;;;;;;5030138;28;20155;-68
2021/11/02 12:02:58;;;;;;;5.22;1.38;;;;;;;;;;5030384;28;20113;-68
2021/11/02 12:05:24;;;;;;;11.48;2.03;;;;;;;;;;5030389;28;20025;-68
2021/11/02 12:07:51;;;;;;;0.63;0.47;;;;;;;;;;5028470;28;20013;-69
2021/11/02 12:10:21;;;;;;;5.25;1.40;;;;;;;;;;5024319;28;20018;-69
2021/11/02 12:12:48;;;;;;;3.78;1.20;;;;;;;;;;5028585;28;20021;-68
2021/11/02 12:15:17;;;;;;;5.00;2.53;;;;;;;;;;5028368;28;20017;-68
2021/11/02 12:17:43;;;;;;;3.25;0.98;;;;;;;;;;5026532;28;20017;-69
2021/11/02 12:20:11;;;;;;;2.03;0.57;;;;;;;;;;5025853;28;20071;-69
2021/11/02 12:22:42;;;;;;;1.05;0.50;;;;;;;;;;5019905;28;20041;-68
2021/11/02 12:25:09;;;;;;;2.75;0.73;;;;;;;;;;5026284;28;20028;-68
2021/11/02 12:27:39;;;;;;;2.42;1.05;;;;;;;;;;5030182;28;20024;-68
2021/11/02 12:30:12;;;;;;;2.33;0.90;;;;;;;;;;5026260;28;20580;-69
2021/11/02 12:32:45;;;;;;;5.82;0.88;;;;;;;;;;5026719;28;20124;-68
2021/11/02 12:35:12;;;;;;;2.88;1.05;;;;;;;;;;5032653;28;20389;-69
2021/11/02 12:37:48;;;;;;;6.05;0.80;;;;;;;;;;5028875;28;20021;-69
2021/11/02 12:40:15;;;;;;;4.00;1.30;;;;;;;;;;5026657;28;20013;-68
2021/11/02 12:42:42;;;;;;;2.05;0.80;;;;;;;;;;5027441;28;20343;-68
2021/11/02 12:45:09;;;;;;;5.57;1.02;;;;;;;;;;5026330;28;20073;-68
2021/11/02 12:47:35;;;;;;;2.63;0.95;;;;;;;;;;5027487;28;20039;-68
2021/11/02 12:50:01;;;;;;;1.75;1.00;;;;;;;;;;5029069;28;20010;-69
2021/11/02 12:52:28;;;;;;;6.72;2.05;;;;;;;;;;5028297;28;20026;-69
2021/11/02 12:54:59;;;;;;;2.72;1.02;;;;;;;;;;5024915;28;20065;-69
2021/11/02 12:57:31;;;;;;;2.65;0.85;;;;;;;;;;5027260;28;20021;-68
2021/11/02 12:59:58;;;;;;;3.42;0.88;;;;;;;;;;5028231;28;20061;-69
2021/11/02 13:04:59;;;;;;;4.60;1.30;;;;;;;;;;5026678;28;20057;-64
2021/11/02 13:07:24;;;;;;;0.60;0.43;;;;;;;;;;5032339;28;20087;-64
2021/11/02 13:09:50;;;;;;;0.45;0.32;;;;;;;;;;5029664;28;20386;-66
2021/11/02 13:12:18;;;;;;;1.75;0.75;;;;;;;;;;5031370;28;20056;-67
2021/11/02 13:14:45;;;;;;;3.20;1.08;;;;;;;;;;5031534;28;20036;-67
2021/11/02 13:17:12;;;;;;;5.40;0.70;;;;;;;;;;5031506;28;20022;-67
2021/11/02 13:19:42;;;;;;;4.20;0.80;;;;;;;;;;5030948;28;20418;-67
2021/11/02 13:22:08;;;;;;;2.80;0.93;;;;;;;;;;5033434;28;20044;-65
2021/11/02 13:24:33;;;;;;;1.67;0.90;;;;;;;;;;5030301;28;20025;-65
2021/11/02 13:26:58;;;;;;;3.85;1.10;;;;;;;;;;5032230;28;20104;-67
2021/11/02 13:29:25;;;;;;;3.50;1.40;;;;;;;;;;5031747;28;20077;-65
2021/11/02 13:31:54;;;;;;;1.15;0.57;;;;;;;;;;5030066;28;20021;-66
2021/11/02 13:34:33;;;;;;;1.90;0.93;;;;;;;;;;5031973;28;20017;-64
2021/11/02 13:37:03;;;;;;;2.17;0.85;;;;;;;;;;5027648;28;20027;-65
2021/11/02 13:39:29;;;;;;;3.28;1.45;;;;;;;;;;5032185;28;20017;-65
2021/11/02 13:41:55;;;;;;;1.85;0.70;;;;;;;;;;5031026;28;20033;-65
2021/11/02 13:44:20;;;;;;;3.83;1.25;;;;;;;;;;5031692;28;20028;-65
2021/11/02 13:46:47;;;;;;;1.10;0.68;;;;;;;;;;5030796;28;20030;-64
2021/11/02 13:49:13;;;;;;;2.72;1.30;;;;;;;;;;5032700;28;20112;-65
2021/11/02 13:51:38;;;;;;;2.95;1.08;;;;;;;;;;5031087;28;20148;-65
2021/11/02 13:54:05;;;;;;;2.30;0.82;;;;;;;;;;5031019;28;20024;-64
2021/11/02 13:56:34;;;;;;;5.32;1.70;;;;;;;;;;5032694;28;20406;-64
2021/11/02 13:59:00;;;;;;;4.15;1.10;;;;;;;;;;5030691;28;20105;-65
2021/11/02 14:01:31;;;;;;;1.27;0.55;;;;;;;;;;5030288;28;20029;-66
2021/11/02 14:03:56;;;;;;;;;;;;;;;;;;5030336;28;20136;-64
2021/11/02 14:06:22;;;;;;;1.77;0.85;;;;;;;;;;5031099;28;19980;-67
2021/11/02 14:08:48;;;;;;;2.60;1.20;;;;;;;;;;5028195;28;20014;-65
2021/11/02 14:11:30;;;;;;;4.85;1.38;;;;;;;;;;5029053;28;20025;-65
2021/11/02 14:13:55;;;;;;;0.95;0.68;;;;;;;;;;5027156;28;20018;-65
2021/11/02 14:16:28;;;;;;;1.05;0.73;;;;;;;;;;5031747;28;20018;-65
2021/11/02 14:18:53;;;;;;;0.73;0.43;;;;;;;;;;5025150;28;20049;-66
2021/11/02 14:21:38;;;;;;;1.42;0.80;;;;;;;;;;5028655;28;20152;-64
2021/11/02 14:24:04;;;;;;;1.23;0.55;;;;;;;;;;5024411;28;20386;-65
2021/11/02 14:26:35;;;;;;;3.63;1.45;;;;;;;;;;5035123;28;20032;-63
2021/11/02 14:29:00;;;;;;;4.35;1.02;;;;;;;;;;5036526;28;20028;-64
2021/11/02 14:31:34;;;;;;;3.78;1.00;;;;;;;;;;5031760;28;20029;-66
2021/11/02 14:34:00;;;;;;;2.95;1.10;;;;;;;;;;5027639;28;20029;-66
2021/11/02 14:36:38;;;;;;;2.70;1.20;;;;;;;;;;5032229;28;20492;-64
2021/11/02 14:39:03;;;;;;;3.45;1.60;;;;;;;;;;5031526;28;20101;-67
2021/11/02 14:41:33;;;;;;;3.65;1.45;;;;;;;;;;5031057;28;20089;-66
2021/11/02 14:44:14;;;;;;;6.88;1.85;;;;;;;;;;5031333;28;20049;-67
2021/11/02 14:46:59;;;;;;;5.70;1.60;;;;;;;;;;5032365;28;20029;-66
2021/11/02 14:49:27;;;;;;;8.60;2.55;;;;;;;;;;5031506;28;20033;-64
2021/11/02 14:51:59;;;;;;;4.72;1.70;;;;;;;;;;5031695;28;20034;-64
2021/11/02 14:54:31;;;;;;;4.72;1.10;;;;;;;;;;5029075;28;20511;-64
2021/11/02 14:56:57;;;;;;;0.68;0.50;;;;;;;;;;5027035;28;20025;-66
2021/11/02 14:59:22;;;;;;;6.75;2.05;;;;;;;;;;5032233;28;20097;-65
2021/11/02 15:02:05;;;;;;;5.50;1.60;;;;;;;;;;5030912;28;20029;-63
2021/11/02 15:04:30;;;;;;;4.45;1.92;;;;;;;;;;5031347;28;20083;-67
2021/11/02 15:06:57;;;;;;;4.95;2.13;;;;;;;;;;5032373;28;20033;-64
2021/11/02 15:09:26;;;;;;;3.60;1.58;;;;;;;;;;5031605;28;20026;-68
2021/11/02 15:11:52;;;;;;;7.35;1.63;;;;;;;;;;5031324;28;20029;-64
2021/11/02 15:14:20;;;;;;;8.57;1.17;;;;;;;;;;5030731;28;20140;-64
2021/11/02 15:16:47;;;;;;;1.88;1.10;;;;;;;;;;5030108;28;20064;-67
2021/11/02 15:19:12;;;;;;;7.43;1.77;;;;;;;;;;5029730;28;20021;-64
2021/11/02 15:21:40;;;;;;;1.52;1.00;;;;;;;;;;5030068;28;20021;-65
2021/11/02 15:24:06;;;;;;;1.73;1.00;;;;;;;;;;5029227;28;20029;-65
2021/11/02 15:26:46;;;;;;;3.30;1.38;;;;;;;;;;5028477;28;20026;-65
2021/11/02 15:29:12;;;;;;;6.55;2.67;;;;;;;;;;5027457;28;20044;-65
2021/11/02 15:31:37;;;;;;;5.88;2.53;;;;;;;;;;5030594;28;20025;-66
2021/11/02 15:34:15;;;;;;;7.82;2.88;;;;;;;;;;5028123;28;20029;-66
2021/11/02 15:36:41;;;;;;;6.43;2.50;;;;;;;;;;5027938;28;20497;-65
2021/11/02 15:39:07;;;;;;;10.38;2.60;;;;;;;;;;5028822;28;20025;-68
2021/11/02 15:41:33;;;;;;;10.35;3.05;;;;;;;;;;5029164;28;20023;-65
2021/11/02 15:43:58;;;;;;;11.63;3.60;;;;;;;;;;5028225;28;20674;-65
2021/11/02 15:46:40;;;;;;;12.07;4.03;;;;;;;;;;5029486;28;20025;-65
2021/11/02 15:49:06;;;;;;;3.95;2.97;;;;;;;;;;5023650;28;20055;-65
2021/11/02 15:51:33;;;;;;;10.40;3.88;;;;;;;;;;5027135;28;20093;-66
2021/11/02 15:53:59;;;;;;;7.38;3.42;;;;;;;;;;5025553;28;20025;-65
2021/11/02 15:56:27;;;;;;;8.15;3.28;;;;;;;;;;5029722;28;20021;-65
2021/11/02 15:58:54;;;;;;;4.88;2.67;;;;;;;;;;5034042;28;20472;-66
2021/11/02 16:01:34;;;;;;;10.52;3.22;;;;;;;;;;5036186;28;20096;-66
2021/11/02 16:04:09;;;;;;;10.23;3.38;;;;;;;;;;5029507;28;20033;-66
2021/11/02 16:06:36;;;;;;;13.80;4.15;;;;;;;;;;5029199;28;20029;-64
2021/11/02 16:09:06;;;;;;;29.67;7.60;;;;;;;;;;5028313;28;20068;-66
2021/11/02 16:11:32;;;;;;;;;;;;;;;;;;5029072;28;20029;-66
2021/11/02 16:14:04;;;;;;;12.27;4.53;;;;;;;;;;5029112;28;19916;-64
2021/11/02 16:16:29;;;;;;;13.07;4.70;;;;;;;;;;5028806;28;20072;-64
2021/11/02 16:18:56;;;;;;;13.68;4.72;;;;;;;;;;5029861;28;20047;-65
2021/11/02 16:21:22;;;;;;;11.77;4.72;;;;;;;;;;5029446;28;20049;-64
2021/11/02 16:23:48;;;;;;;9.40;4.45;;;;;;;;;;5025252;28;20167;-64
2021/11/02 16:26:21;;;;;;;7.10;4.10;;;;;;;;;;5028720;28;20127;-64
2021/11/02 16:28:47;;;;;;;12.38;4.10;;;;;;;;;;5028798;28;20025;-67
2021/11/02 16:31:23;;;;;;;8.93;3.40;;;;;;;;;;5027489;28;20028;-66
2021/11/02 16:33:49;;;;;;;10.38;3.45;;;;;;;;;;5028317;28;20029;-67
2021/11/02 16:36:27;;;;;;;7.13;3.47;;;;;;;;;;5029884;28;20378;-66
2021/11/02 16:39:00;;;;;;;14.23;4.20;;;;;;;;;;5038568;28;20018;-65
2021/11/02 16:41:27;;;;;;;10.15;4.32;;;;;;;;;;5028063;28;20414;-65
2021/11/02 16:44:03;;;;;;;11.23;4.05;;;;;;;;;;5022010;28;20184;-65
2021/11/02 16:46:29;;;;;;;12.40;3.80;;;;;;;;;;5027320;28;20025;-65
2021/11/02 16:48:59;;;;;;;14.10;3.88;;;;;;;;;;5026023;28;20102;-64
2021/11/02 16:51:39;;;;;;;9.40;5.80;;;;;;;;;;5033377;28;20481;-65
2021/11/02 16:54:05;;;;;;;;;;;;;;;;;;5030356;28;20640;-66
2021/11/02 16:56:31;;;;;;;8.97;4.80;;;;;;;;;;5030397;28;19920;-66
2021/11/02 16:58:56;;;;;;;12.00;6.38;;;;;;;;;;5030037;28;20438;-66
2021/11/02 17:01:25;;;;;;;11.30;5.97;;;;;;;;;;5028667;28;20425;-66
2021/11/02 17:03:52;;;;;;;14.68;6.13;;;;;;;;;;5026875;28;20107;-65
2021/11/02 17:06:21;;;;;;;12.45;5.28;;;;;;;;;;5029333;28;20029;-65
2021/11/02 17:09:10;;;;;;;7.47;4.40;;;;;;;;;;5029430;28;20022;-64
2021/11/02 17:11:45;;;;;;;9.10;4.25;;;;;;;;;;5009633;28;20041;-66
2021/11/02 17:14:11;;;;;;;7.40;4.30;;;;;;;;;;5028726;28;20022;-66
2021/11/02 17:16:42;;;;;;;9.55;3.67;;;;;;;;;;5026945;28;20029;-66
2021/11/02 17:19:08;;;;;;;10.95;4.88;;;;;;;;;;5028603;28;20018;-66
2021/11/02 17:21:35;;;;;;;6.10;3.75;;;;;;;;;;5028849;28;20021;-65
2021/11/02 17:24:01;;;;;;;7.38;3.50;;;;;;;;;;5028082;28;20091;-65
2021/11/02 17:26:27;;;;;;;7.20;4.60;;;;;;;;;;5028193;28;20037;-65
2021/11/02 17:28:53;;;;;;;5.93;3.03;;;;;;;;;;5028575;28;20032;-65
2021/11/02 17:31:19;;;;;;;10.43;3.58;;;;;;;;;;5028860;28;20023;-65
2021/11/02 17:33:45;;;;;;;6.47;2.63;;;;;;;;;;5029435;28;20013;-65
2021/11/02 17:36:12;;;;;;;9.23;3.10;;;;;;;;;;5029912;28;20021;-64
2021/11/02 17:38:38;;;;;;;6.78;2.85;;;;;;;;;;5030253;28;20018;-66
2021/11/02 17:41:04;;;;;;;9.63;3.05;;;;;;;;;;5029283;28;20022;-65
2021/11/02 17:43:30;;;;;;;6.18;3.28;;;;;;;;;;5028966;28;20079;-66
2021/11/02 17:45:56;;;;;;;10.55;3.15;;;;;;;;;;5037579;28;20500;-66
2021/11/02 17:48:21;;;;;;;7.40;2.55;;;;;;;;;;5049814;28;20025;-66
2021/11/02 17:50:47;;;;;;;6.20;2.85;;;;;;;;;;5049651;28;20535;-67
2021/11/02 17:53:12;;;;;;;6.97;3.42;;;;;;;;;;5035707;28;20063;-64
2021/11/02 17:55:38;;;;;;;6.90;2.50;;;;;;;;;;5031885;28;20017;-64
2021/11/02 17:58:03;;;;;;;8.40;3.92;;;;;;;;;;5032350;28;20021;-64
2021/11/02 18:00:29;;;;;;;6.05;3.10;;;;;;;;;;5033315;28;20020;-65
2021/11/02 18:02:56;;;;;;;5.82;2.92;;;;;;;;;;5032362;28;20021;-64
2021/11/02 18:05:28;;;;;;;8.05;3.10;;;;;;;;;;5033051;28;20033;-65
2021/11/02 18:07:54;;;;;;;5.15;2.92;;;;;;;;;;5032477;28;20075;-67
2021/11/02 18:10:19;;;;;;;5.13;3.15;;;;;;;;;;5032733;28;20030;-65
2021/11/02 18:12:45;;;;;;;6.88;3.22;;;;;;;;;;5032494;28;20033;-67
2021/11/02 18:15:10;;;;;;;10.40;4.20;;;;;;;;;;5031429;28;20108;-66
2021/11/02 18:17:49;;;;;;;8.10;3.30;;;;;;;;;;5032351;28;20037;-67
2021/11/02 18:20:16;;;;;;;8.82;3.95;;;;;;;;;;5032701;28;20091;-67
2021/11/02 18:22:43;;;;;;;9.13;3.83;;;;;;;;;;5032516;28;20067;-66
2021/11/02 18:25:08;;;;;;;10.23;3.50;;;;;;;;;;5033466;28;20040;-66
2021/11/02 18:27:33;;;;;;;7.28;3.60;;;;;;;;;;5043757;28;20014;-66
2021/11/02 18:29:58;;;;;;;8.45;3.33;;;;;;;;;;5031749;28;20041;-66
2021/11/02 18:32:24;;;;;;;6.45;3.00;;;;;;;;;;5032592;28;20025;-67
2021/11/02 18:34:49;;;;;;;5.10;3.38;;;;;;;;;;5032337;28;20521;-68
2021/11/02 18:37:15;;;;;;;6.07;3.67;;;;;;;;;;5032733;28;20018;-67
2021/11/02 18:39:41;;;;;;;7.85;4.30;;;;;;;;;;5035667;28;20017;-68
2021/11/02 18:42:07;;;;;;;6.63;3.80;;;;;;;;;;5031835;28;20469;-67
2021/11/02 18:44:33;;;;;;;8.88;3.38;;;;;;;;;;5032557;28;20032;-68
2021/11/02 18:46:58;;;;;;;12.18;4.28;;;;;;;;;;5031242;28;20036;-69
2021/11/02 18:49:25;;;;;;;8.85;3.97;;;;;;;;;;5032032;28;20508;-68
2021/11/02 18:51:50;;;;;;;10.05;4.20;;;;;;;;;;5030737;28;20370;-66
2021/11/02 18:54:15;;;;;;;6.32;4.22;;;;;;;;;;5029658;28;20024;-67
2021/11/02 18:56:41;;;;;;;11.10;4.93;;;;;;;;;;5031678;28;20017;-67
2021/11/02 18:59:06;;;;;;;9.43;4.22;;;;;;;;;;5029760;28;20022;-67
2021/11/02 19:01:32;;;;;;;10.88;4.13;;;;;;;;;;5028337;28;20466;-65
2021/11/02 19:03:57;;;;;;;7.78;4.10;;;;;;;;;;5029033;28;20036;-66
2021/11/02 19:06:23;;;;;;;5.57;3.38;;;;;;;;;;5029885;28;20417;-66
2021/11/02 19:08:49;;;;;;;8.15;3.58;;;;;;;;;;5017260;28;20100;-66
2021/11/02 19:11:14;;;;;;;12.30;4.30;;;;;;;;;;5019071;28;20558;-65
2021/11/02 19:13:39;;;;;;;10.18;3.53;;;;;;;;;;5031504;28;20031;-66
2021/11/02 19:16:04;;;;;;;9.73;3.92;;;;;;;;;;5030846;28;20028;-65
2021/11/02 19:18:30;;;;;;;7.88;3.78;;;;;;;;;;5026960;28;20410;-66
2021/11/02 19:20:55;;;;;;;9.38;4.50;;;;;;;;;;5032871;28;20026;-67
2021/11/02 19:23:20;;;;;;;8.32;4.93;;;;;;;;;;5030789;28;20076;-65
2021/11/02 19:25:45;;;;;;;10.85;4.95;;;;;;;;;;5030989;28;20067;-67
2021/11/02 19:28:11;;;;;;;13.40;4.60;;;;;;;;;;5030627;28;20037;-67
2021/11/02 19:30:36;;;;;;;10.70;4.32;;;;;;;;;;5026800;28;20028;-67
2021/11/02 19:33:02;;;;;;;16.20;5.53;;;;;;;;;;5051031;28;20178;-66
2021/11/02 19:35:28;;;;;;;10.13;4.55;;;;;;;;;;5038207;28;20022;-64